createdAt,value
2023-07-18T00:00:15.820Z,99108.34
2023-07-18T00:02:45.894Z,99109.06
2023-07-18T00:05:13.543Z,99114.09
2023-07-18T00:07:41.663Z,99119.81
2023-07-18T00:10:12.661Z,99114.28
2023-07-18T00:12:40.725Z,99117.63
2023-07-18T00:15:10.624Z,99107.81
2023-07-18T00:17:38.472Z,99115.59
2023-07-18T00:20:09.808Z,99118.38
2023-07-18T00:22:37.398Z,99110.41
2023-07-18T00:25:04.365Z,99117.78
2023-07-18T00:27:30.768Z,99106.34
2023-07-18T00:29:57.231Z,99113.53
2023-07-18T00:32:26.687Z,99103.25
2023-07-18T00:34:57.365Z,99113.69
2023-07-18T00:37:24.329Z,99108.81
2023-07-18T00:39:50.850Z,99108.13
2023-07-18T00:42:17.533Z,99112.31
2023-07-18T00:44:43.952Z,99105.19
2023-07-18T00:47:10.514Z,99115.25
2023-07-18T00:49:37.475Z,99111.41
2023-07-18T00:52:05.685Z,99110.75
2023-07-18T00:54:32.243Z,99114.72
2023-07-18T00:56:58.645Z,99111.75
2023-07-18T00:59:25.760Z,99111.47
2023-07-18T01:01:52.527Z,99108.53
2023-07-18T01:04:19.573Z,99103.25
2023-07-18T01:06:46.246Z,99110.00
2023-07-18T01:09:12.857Z,99104.09
2023-07-18T01:11:39.369Z,99104.34
2023-07-18T01:14:06.901Z,99102.25
2023-07-18T01:16:33.457Z,99104.50
2023-07-18T01:18:59.973Z,99109.16
2023-07-18T01:21:26.362Z,99102.53
2023-07-18T01:23:52.782Z,99098.91
2023-07-18T01:26:19.237Z,99104.50
2023-07-18T01:28:45.858Z,99103.53
2023-07-18T01:31:12.402Z,99095.94
2023-07-18T01:33:39.054Z,99100.28
2023-07-18T01:36:05.744Z,99102.13
2023-07-18T01:38:32.478Z,99097.34
2023-07-18T01:41:02.663Z,99100.00
2023-07-18T01:43:29.315Z,99095.66
2023-07-18T01:46:00.184Z,99098.03
2023-07-18T01:48:27.462Z,99094.09
2023-07-18T01:50:54.288Z,99092.13
2023-07-18T01:53:21.037Z,99094.09
2023-07-18T01:55:47.480Z,99087.50
2023-07-18T01:58:13.927Z,99091.84
2023-07-18T02:00:40.418Z,99090.56
2023-07-18T02:03:07.040Z,99098.63
2023-07-18T02:05:34.040Z,99096.38
2023-07-18T02:08:00.590Z,99086.84
2023-07-18T02:10:27.702Z,99095.38
2023-07-18T02:12:57.707Z,99090.84
2023-07-18T02:15:24.107Z,99091.25
2023-07-18T02:17:51.052Z,99088.47
2023-07-18T02:20:17.876Z,99090.72
2023-07-18T02:22:45.892Z,99091.25
2023-07-18T02:25:13.171Z,99086.88
2023-07-18T02:27:41.491Z,99094.16
2023-07-18T02:30:12.681Z,99083.97
2023-07-18T02:32:40.399Z,99083.81
2023-07-18T02:35:11.741Z,99087.91
2023-07-18T02:37:38.967Z,99089.59
2023-07-18T02:40:12.707Z,99093.34
2023-07-18T02:42:39.725Z,99081.06
2023-07-18T02:45:11.050Z,99084.81
2023-07-18T02:47:38.336Z,99082.88
2023-07-18T02:50:05.556Z,99094.53
2023-07-18T02:52:32.697Z,99093.69
2023-07-18T02:54:59.320Z,99089.25
2023-07-18T02:57:25.750Z,99097.69
2023-07-18T02:59:52.253Z,99097.75
2023-07-18T03:02:18.819Z,99106.56
2023-07-18T03:04:48.694Z,99095.03
2023-07-18T03:07:15.128Z,99101.06
2023-07-18T03:09:43.044Z,99094.03
2023-07-18T03:12:11.695Z,99092.91
2023-07-18T03:14:38.763Z,99096.09
2023-07-18T03:17:05.703Z,99100.84
2023-07-18T03:19:32.878Z,99098.25
2023-07-18T03:21:59.439Z,99094.47
2023-07-18T03:24:26.036Z,99102.69
2023-07-18T03:26:53.797Z,99109.31
2023-07-18T03:29:20.963Z,99100.00
2023-07-18T03:31:47.640Z,99102.78
2023-07-18T03:34:14.101Z,99105.56
2023-07-18T03:36:40.502Z,99101.47
2023-07-18T03:39:07.126Z,99096.25
2023-07-18T03:41:33.611Z,99095.00
2023-07-18T03:44:01.127Z,99088.66
2023-07-18T03:46:27.574Z,99092.53
2023-07-18T03:48:54.208Z,99087.72
2023-07-18T03:51:21.109Z,99089.31
2023-07-18T03:53:51.979Z,99088.44
2023-07-18T03:56:18.793Z,99088.09
2023-07-18T03:58:45.208Z,99089.13
2023-07-18T04:01:11.767Z,99087.88
2023-07-18T04:03:39.304Z,99087.63
2023-07-18T04:06:07.713Z,99083.16
2023-07-18T04:08:34.438Z,99077.44
2023-07-18T04:11:01.198Z,99079.94
2023-07-18T04:13:27.690Z,99080.72
2023-07-18T04:15:55.292Z,99081.78
2023-07-18T04:18:22.312Z,99081.19
2023-07-18T04:20:50.216Z,99087.84
2023-07-18T04:23:17.414Z,99085.88
2023-07-18T04:25:57.364Z,99074.88
2023-07-18T04:28:24.112Z,99080.66
2023-07-18T04:30:50.568Z,99078.63
2023-07-18T04:33:17.072Z,99087.75
2023-07-18T04:35:46.008Z,99083.81
2023-07-18T04:38:14.849Z,99082.50
2023-07-18T04:40:42.388Z,99090.44
2023-07-18T04:43:09.469Z,99088.34
2023-07-18T04:45:46.437Z,99084.56
2023-07-18T04:48:14.737Z,99089.59
2023-07-18T04:50:46.177Z,99084.00
2023-07-18T04:53:12.870Z,99081.91
2023-07-18T04:55:39.985Z,99076.16
2023-07-18T04:58:08.049Z,99076.84
2023-07-18T05:00:35.503Z,99071.78
2023-07-18T05:03:02.079Z,99067.84
2023-07-18T05:05:30.098Z,99069.22
2023-07-18T05:07:59.533Z,99062.78
2023-07-18T05:10:26.591Z,99065.34
2023-07-18T05:12:54.212Z,99068.16
2023-07-18T05:15:21.039Z,99063.03
2023-07-18T05:17:48.489Z,99067.78
2023-07-18T05:20:15.567Z,99057.38
2023-07-18T05:22:44.589Z,99059.22
2023-07-18T05:25:13.635Z,99065.75
2023-07-18T05:27:41.276Z,99064.47
2023-07-18T05:30:15.020Z,99056.91
2023-07-18T05:32:42.527Z,99060.69
2023-07-18T05:35:15.036Z,99058.13
2023-07-18T05:37:43.233Z,99049.22
2023-07-18T05:40:11.201Z,99058.91
2023-07-18T05:42:42.237Z,99057.09
2023-07-18T05:45:10.914Z,99059.72
2023-07-18T05:47:39.587Z,99056.34
2023-07-18T05:50:07.688Z,99060.03
2023-07-18T05:52:34.809Z,99052.69
2023-07-18T05:55:01.408Z,99047.13
2023-07-18T05:57:27.949Z,99051.56
2023-07-18T05:59:54.396Z,99048.34
2023-07-18T06:02:22.357Z,99045.44
2023-07-18T06:04:48.888Z,99043.81
2023-07-18T06:07:18.248Z,99045.44
2023-07-18T06:09:44.825Z,99040.81
2023-07-18T06:12:12.946Z,99045.47
2023-07-18T06:14:39.682Z,99039.97
2023-07-18T06:17:06.506Z,99027.81
2023-07-18T06:19:33.070Z,99034.56
2023-07-18T06:22:00.131Z,99025.31
2023-07-18T06:24:26.693Z,99024.00
2023-07-18T06:26:53.566Z,99026.25
2023-07-18T06:29:21.425Z,99024.00
2023-07-18T06:31:49.458Z,99019.38
2023-07-18T06:34:19.874Z,99025.22
2023-07-18T06:36:47.047Z,99014.56
2023-07-18T06:39:15.238Z,99007.94
2023-07-18T06:41:42.268Z,99010.72
2023-07-18T06:44:10.118Z,99002.66
2023-07-18T06:46:37.296Z,99007.38
2023-07-18T06:49:04.285Z,98999.38
2023-07-18T06:51:30.907Z,99010.22
2023-07-18T06:53:57.376Z,99007.13
2023-07-18T06:56:24.557Z,98992.19
2023-07-18T06:58:51.113Z,98998.22
2023-07-18T07:01:17.717Z,98994.06
2023-07-18T07:03:44.510Z,98995.41
2023-07-18T07:06:14.253Z,98997.06
2023-07-18T07:08:40.858Z,98999.75
2023-07-18T07:11:09.499Z,98997.28
2023-07-18T07:13:36.737Z,98993.63
2023-07-18T07:16:06.351Z,98992.59
2023-07-18T07:18:32.904Z,99000.84
2023-07-18T07:21:01.405Z,98988.88
2023-07-18T07:23:29.442Z,98997.56
2023-07-18T07:25:55.941Z,98992.31
2023-07-18T07:28:24.988Z,98989.69
2023-07-18T07:30:52.420Z,98988.78
2023-07-18T07:33:20.261Z,98991.88
2023-07-18T07:35:47.203Z,98996.69
2023-07-18T07:38:13.853Z,98995.28
2023-07-18T07:40:40.270Z,98983.41
2023-07-18T07:43:06.736Z,98983.09
2023-07-18T07:45:33.153Z,98987.97
2023-07-18T07:47:59.937Z,98979.03
2023-07-18T07:50:26.677Z,98984.53
2023-07-18T07:52:53.284Z,98980.16
2023-07-18T07:55:19.796Z,98975.44
2023-07-18T07:57:46.380Z,98970.94
2023-07-18T08:00:14.022Z,98970.47
2023-07-18T08:02:46.584Z,98973.47
2023-07-18T08:05:27.343Z,98962.41
2023-07-18T08:07:53.972Z,98954.00
2023-07-18T08:10:26.973Z,98955.34
2023-07-18T08:13:02.896Z,98955.50
2023-07-18T08:15:43.483Z,98959.09
2023-07-18T08:18:25.488Z,98946.06
2023-07-18T08:21:04.494Z,98934.75
2023-07-18T08:23:30.943Z,98943.03
2023-07-18T08:25:57.359Z,98938.56
2023-07-18T08:28:24.017Z,98928.63
2023-07-18T08:30:50.559Z,98936.19
2023-07-18T08:33:21.754Z,98930.75
2023-07-18T08:35:51.396Z,98932.63
2023-07-18T08:38:26.076Z,98934.69
2023-07-18T08:40:59.849Z,98922.59
2023-07-18T08:43:56.235Z,98927.91
2023-07-18T08:46:22.918Z,98917.25
2023-07-18T08:48:52.220Z,98920.22
2023-07-18T08:51:23.070Z,98918.47
2023-07-18T08:54:03.425Z,98908.47
2023-07-18T08:56:30.059Z,98907.03
2023-07-18T08:59:03.671Z,98892.19
2023-07-18T09:01:30.480Z,98898.66
2023-07-18T09:03:57.172Z,98892.72
2023-07-18T09:06:24.313Z,98890.69
2023-07-18T09:08:51.542Z,98896.91
2023-07-18T09:11:20.158Z,98896.66
2023-07-18T09:13:50.762Z,98890.69
2023-07-18T09:16:22.496Z,98885.97
2023-07-18T09:18:54.055Z,98871.03
2023-07-18T09:21:21.895Z,98871.69
2023-07-18T09:23:49.129Z,98862.97
2023-07-18T09:26:17.969Z,98860.25
2023-07-18T09:28:44.560Z,98852.28
2023-07-18T09:31:21.234Z,98851.69
2023-07-18T09:33:49.747Z,98843.78
2023-07-18T09:36:19.028Z,98830.47
2023-07-18T09:38:49.810Z,98833.88
2023-07-18T09:41:18.544Z,98831.06
2023-07-18T09:43:45.793Z,98830.25
2023-07-18T09:46:17.087Z,98832.75
2023-07-18T09:48:45.696Z,98820.88
2023-07-18T09:51:17.714Z,98806.59
2023-07-18T09:53:46.677Z,98809.25
2023-07-18T09:56:16.100Z,98805.13
2023-07-18T09:58:48.069Z,98806.81
2023-07-18T10:01:21.067Z,98808.53
2023-07-18T10:03:53.716Z,98825.75
2023-07-18T10:06:21.490Z,98826.81
2023-07-18T10:08:48.641Z,98837.94
2023-07-18T10:11:15.358Z,98844.38
2023-07-18T10:13:43.117Z,98842.25
2023-07-18T10:16:17.671Z,98838.78
2023-07-18T10:18:48.417Z,98848.03
2023-07-18T10:21:29.982Z,98847.19
2023-07-18T10:23:57.018Z,98848.09
2023-07-18T10:26:33.584Z,98844.88
2023-07-18T10:29:02.982Z,98849.66
2023-07-18T10:31:29.663Z,98848.25
2023-07-18T10:34:10.268Z,98853.44
2023-07-18T10:36:38.289Z,98851.69
2023-07-18T10:39:10.236Z,98861.69
2023-07-18T10:41:37.750Z,98853.75
2023-07-18T10:44:04.531Z,98850.53
2023-07-18T10:46:37.866Z,98851.94
2023-07-18T10:49:04.630Z,98844.59
2023-07-18T10:51:31.789Z,98828.09
2023-07-18T10:54:00.094Z,98816.50
2023-07-18T10:56:27.134Z,98819.44
2023-07-18T10:58:56.139Z,98819.63
2023-07-18T11:01:27.388Z,98800.06
2023-07-18T11:03:56.929Z,98785.53
2023-07-18T11:06:23.930Z,98780.59
2023-07-18T11:08:50.508Z,98784.53
2023-07-18T11:11:19.705Z,98774.31
2023-07-18T11:13:46.700Z,98753.50
2023-07-18T11:16:17.074Z,98739.13
2023-07-18T11:18:46.448Z,98742.41
2023-07-18T11:21:14.563Z,98741.69
2023-07-18T11:23:42.719Z,98742.34
2023-07-18T11:26:17.773Z,98746.31
2023-07-18T11:28:46.591Z,98739.75
2023-07-18T11:31:39.039Z,98744.69
2023-07-18T11:34:07.382Z,98739.59
2023-07-18T11:36:38.228Z,98728.59
2023-07-18T11:39:20.732Z,98727.69
2023-07-18T11:41:48.153Z,98718.63
2023-07-18T11:44:24.568Z,98717.97
2023-07-18T11:46:53.426Z,98718.81
2023-07-18T11:49:33.632Z,98715.25
2023-07-18T11:52:02.515Z,98712.91
2023-07-18T11:54:29.015Z,98722.66
2023-07-18T11:56:55.475Z,98725.25
2023-07-18T11:59:22.792Z,98730.34
2023-07-18T12:01:49.352Z,98733.19
2023-07-18T12:04:16.121Z,98717.75
2023-07-18T12:06:42.777Z,98716.00
2023-07-18T12:09:09.360Z,98717.38
2023-07-18T12:11:36.066Z,98697.63
2023-07-18T12:14:05.535Z,98699.38
2023-07-18T12:16:32.526Z,98693.53
2023-07-18T12:18:59.278Z,98697.84
2023-07-18T12:21:25.725Z,98697.91
2023-07-18T12:23:52.156Z,98696.69
2023-07-18T12:26:18.589Z,98684.72
2023-07-18T12:28:45.325Z,98677.78
2023-07-18T12:31:11.983Z,98668.69
2023-07-18T12:33:39.564Z,98657.22
2023-07-18T12:36:06.505Z,98654.19
2023-07-18T12:38:32.987Z,98645.66
2023-07-18T12:40:59.653Z,98641.00
2023-07-18T12:43:26.410Z,98628.91
2023-07-18T12:45:52.918Z,98626.16
2023-07-18T12:48:20.408Z,98616.75
2023-07-18T12:50:46.808Z,98606.59
2023-07-18T12:53:13.242Z,98610.91
2023-07-18T12:55:43.941Z,98608.84
2023-07-18T12:58:10.639Z,98608.94
2023-07-18T13:00:37.332Z,98604.78
2023-07-18T13:03:04.001Z,98609.13
2023-07-18T13:05:33.413Z,98607.94
2023-07-18T13:07:59.844Z,98607.44
2023-07-18T13:10:28.835Z,98591.63
2023-07-18T13:12:55.311Z,98597.69
2023-07-18T13:15:25.006Z,98595.09
2023-07-18T13:17:55.925Z,98585.78
2023-07-18T13:20:30.621Z,98565.91
2023-07-18T13:22:57.186Z,98574.25
2023-07-18T13:25:23.718Z,98575.00
2023-07-18T13:27:50.274Z,98569.25
2023-07-18T13:30:17.665Z,98563.78
2023-07-18T13:32:46.170Z,98563.09
2023-07-18T13:35:12.824Z,98562.09
2023-07-18T13:37:39.415Z,98556.56
2023-07-18T13:40:07.552Z,98555.72
2023-07-18T13:43:16.376Z,98546.81
2023-07-18T13:45:57.633Z,98535.56
2023-07-18T13:49:06.993Z,98534.81
2023-07-18T13:51:59.169Z,98532.19
2023-07-18T13:57:40.270Z,98534.19
2023-07-18T14:00:07.686Z,98527.47
2023-07-18T14:02:34.796Z,98528.50
2023-07-18T14:05:01.397Z,98525.97
2023-07-18T14:07:28.048Z,98527.22
2023-07-18T14:09:54.552Z,98527.94
2023-07-18T14:12:20.985Z,98518.91
2023-07-18T14:14:47.463Z,98525.38
2023-07-18T14:17:13.892Z,98524.47
2023-07-18T14:19:40.308Z,98529.84
2023-07-18T14:22:07.212Z,98528.41
2023-07-18T14:24:33.673Z,98527.09
2023-07-18T14:27:00.158Z,98520.44
2023-07-18T14:29:26.641Z,98529.91
2023-07-18T14:31:54.010Z,98528.31
2023-07-18T14:34:20.440Z,98531.31
2023-07-18T14:36:46.941Z,98520.25
2023-07-18T14:39:13.371Z,98527.00
2023-07-18T14:41:39.926Z,98514.25
2023-07-18T14:44:06.445Z,98513.19
2023-07-18T14:46:33.764Z,98506.19
2023-07-18T14:49:00.425Z,98500.06
2023-07-18T14:51:26.933Z,98499.31
2023-07-18T14:53:53.445Z,98505.94
2023-07-18T14:56:20.637Z,98502.56
2023-07-18T14:58:47.232Z,98501.84
2023-07-18T15:01:14.151Z,98486.34
2023-07-18T15:03:40.690Z,98480.31
2023-07-18T15:06:07.352Z,98479.50
2023-07-18T15:08:34.705Z,98469.31
2023-07-18T15:11:04.192Z,98467.84
2023-07-18T15:13:30.767Z,98464.44
2023-07-18T15:15:57.209Z,98461.81
2023-07-18T15:18:23.782Z,98455.44
2023-07-18T15:20:50.306Z,98444.44
2023-07-18T15:23:16.938Z,98449.47
2023-07-18T15:25:43.638Z,98436.81
2023-07-18T15:28:14.321Z,98441.84
2023-07-18T15:30:40.764Z,98433.81
2023-07-18T15:33:24.140Z,98435.47
2023-07-18T15:35:51.947Z,98422.25
2023-07-18T15:38:18.399Z,98418.72
2023-07-18T15:40:44.845Z,98415.75
2023-07-18T15:43:11.313Z,98417.28
2023-07-18T15:45:37.749Z,98420.44
2023-07-18T15:48:04.552Z,98415.75
2023-07-18T15:50:32.113Z,98413.72
2023-07-18T15:53:00.694Z,98418.31
2023-07-18T15:55:28.092Z,98416.44
2023-07-18T15:57:54.627Z,98408.19
2023-07-18T16:00:21.176Z,98407.13
2023-07-18T16:02:47.801Z,98396.81
2023-07-18T16:05:14.324Z,98390.81
2023-07-18T16:07:40.736Z,98395.38
2023-07-18T16:10:07.611Z,98393.06
2023-07-18T16:12:34.024Z,98384.28
2023-07-18T16:15:00.617Z,98377.47
2023-07-18T16:17:28.865Z,98374.81
2023-07-18T16:19:57.185Z,98383.81
2023-07-18T16:22:24.102Z,98386.91
2023-07-18T16:24:50.569Z,98380.63
2023-07-18T16:27:17.259Z,98373.84
2023-07-18T16:29:44.998Z,98366.06
2023-07-18T16:32:11.572Z,98366.47
2023-07-18T16:34:38.196Z,98366.88
2023-07-18T16:37:05.028Z,98357.97
2023-07-18T16:39:31.554Z,98350.44
2023-07-18T16:42:03.371Z,98356.34
2023-07-18T16:44:37.132Z,98357.09
2023-07-18T16:47:04.274Z,98352.09
2023-07-18T16:49:31.679Z,98347.31
2023-07-18T16:51:58.061Z,98337.91
2023-07-18T16:54:24.472Z,98334.06
2023-07-18T16:56:50.862Z,98326.66
2023-07-18T16:59:17.328Z,98324.34
2023-07-18T17:01:44.248Z,98322.91
2023-07-18T17:04:10.773Z,98318.13
2023-07-18T17:06:37.213Z,98316.69
2023-07-18T17:09:03.740Z,98318.84
2023-07-18T17:11:30.300Z,98323.34
2023-07-18T17:13:56.872Z,98319.47
2023-07-18T17:16:23.914Z,98329.69
2023-07-18T17:18:50.825Z,98327.22
2023-07-18T17:21:17.327Z,98326.38
2023-07-18T17:23:43.806Z,98308.09
2023-07-18T17:26:10.318Z,98316.16
2023-07-18T17:28:37.557Z,98311.91
2023-07-18T17:31:04.605Z,98322.28
2023-07-18T17:33:31.453Z,98319.19
2023-07-18T17:35:58.002Z,98312.16
2023-07-18T17:38:24.642Z,98312.91
2023-07-18T17:40:51.294Z,98306.97
2023-07-18T17:43:18.378Z,98307.44
2023-07-18T17:45:44.817Z,98313.50
2023-07-18T17:48:11.328Z,98306.41
2023-07-18T17:50:37.773Z,98306.06
2023-07-18T17:53:04.800Z,98308.13
2023-07-18T17:55:31.444Z,98312.63
2023-07-18T17:57:57.897Z,98306.28
2023-07-18T18:00:24.359Z,98299.13
2023-07-18T18:02:50.903Z,98297.53
2023-07-18T18:05:44.907Z,98302.25
2023-07-18T18:08:11.979Z,98297.78
2023-07-18T18:10:38.447Z,98290.78
2023-07-18T18:13:04.895Z,98286.66
2023-07-18T18:15:31.422Z,98284.84
2023-07-18T18:17:57.884Z,98283.84
2023-07-18T18:20:24.475Z,98289.94
2023-07-18T18:22:50.974Z,98283.34
2023-07-18T18:25:17.581Z,98283.00
2023-07-18T18:27:44.951Z,98284.41
2023-07-18T18:30:12.493Z,98291.38
2023-07-18T18:32:39.015Z,98294.34
2023-07-18T18:35:08.014Z,98289.44
2023-07-18T18:37:34.995Z,98289.84
2023-07-18T18:40:01.507Z,98293.81
2023-07-18T18:42:27.940Z,98302.84
2023-07-18T18:44:54.424Z,98296.03
2023-07-18T18:47:20.812Z,98296.88
2023-07-18T18:49:47.251Z,98309.19
2023-07-18T18:52:13.732Z,98302.59
2023-07-18T18:54:40.363Z,98305.31
2023-07-18T18:57:08.322Z,98299.88
2023-07-18T18:59:34.961Z,98300.94
2023-07-18T19:02:01.623Z,98297.63
2023-07-18T19:04:28.075Z,98291.66
2023-07-18T19:06:56.584Z,98301.13
2023-07-18T19:09:23.230Z,98302.16
2023-07-18T19:11:49.772Z,98304.00
2023-07-18T19:14:16.469Z,98302.66
2023-07-18T19:16:42.997Z,98305.25
2023-07-18T19:19:11.497Z,98299.13
2023-07-18T19:21:37.975Z,98293.78
2023-07-18T19:24:04.778Z,98292.22
2023-07-18T19:26:31.383Z,98301.44
2023-07-18T19:28:57.844Z,98298.03
2023-07-18T19:31:24.528Z,98292.53
2023-07-18T19:33:51.009Z,98303.75
2023-07-18T19:36:17.513Z,98308.31
2023-07-18T19:38:43.964Z,98309.66
2023-07-18T19:41:10.382Z,98316.16
2023-07-18T19:43:37.020Z,98316.09
2023-07-18T19:46:03.911Z,98321.81
2023-07-18T19:48:30.386Z,98325.94
2023-07-18T19:50:56.871Z,98322.09
2023-07-18T19:53:25.623Z,98329.66
2023-07-18T19:55:52.222Z,98331.91
2023-07-18T19:58:18.680Z,98329.66
2023-07-18T20:00:45.042Z,98332.34
2023-07-18T20:03:11.680Z,98329.25
2023-07-18T20:05:38.343Z,98328.63
2023-07-18T20:08:04.801Z,98331.97
2023-07-18T20:10:31.304Z,98331.94
2023-07-18T20:12:57.777Z,98330.88
2023-07-18T20:15:24.901Z,98327.63
2023-07-18T20:17:51.585Z,98323.50
2023-07-18T20:20:19.363Z,98318.75
2023-07-18T20:22:45.966Z,98315.19
2023-07-18T20:25:12.772Z,98320.97
2023-07-18T20:27:39.311Z,98319.03
2023-07-18T20:30:06.645Z,98323.91
2023-07-18T20:32:35.181Z,98328.06
2023-07-18T20:35:01.775Z,98323.22
2023-07-18T20:37:28.325Z,98327.94
2023-07-18T20:39:55.824Z,98331.06
2023-07-18T20:42:22.390Z,98333.38
2023-07-18T20:44:48.879Z,98316.13
2023-07-18T20:47:15.321Z,98323.91
2023-07-18T20:49:41.797Z,98317.44
2023-07-18T20:52:08.461Z,98314.69
2023-07-18T20:54:36.702Z,98317.13
2023-07-18T20:57:03.813Z,98319.25
2023-07-18T20:59:30.291Z,98317.91
2023-07-18T21:01:56.971Z,98323.47
2023-07-18T21:04:23.822Z,98333.38
2023-07-18T21:06:50.333Z,98330.31
2023-07-18T21:09:16.747Z,98328.00
2023-07-18T21:11:44.473Z,98323.31
2023-07-18T21:14:11.236Z,98314.56
2023-07-18T21:16:38.247Z,98316.84
2023-07-18T21:19:04.740Z,98314.25
2023-07-18T21:21:31.525Z,98313.78
2023-07-18T21:23:59.036Z,98319.63
2023-07-18T21:26:25.615Z,98317.88
2023-07-18T21:29:04.144Z,98318.63
2023-07-18T21:31:32.779Z,98308.84
2023-07-18T21:33:59.234Z,98312.88
2023-07-18T21:36:25.752Z,98310.88
2023-07-18T21:38:52.204Z,98310.09
2023-07-18T21:41:20.737Z,98300.38
2023-07-18T21:43:47.921Z,98307.22
2023-07-18T21:46:14.609Z,98305.91
2023-07-18T21:48:41.028Z,98302.91
2023-07-18T21:51:07.442Z,98300.03
2023-07-18T21:53:33.856Z,98304.50
2023-07-18T21:56:03.220Z,98298.53
2023-07-18T21:58:30.102Z,98302.59
2023-07-18T22:00:56.647Z,98294.69
2023-07-18T22:03:23.175Z,98297.38
2023-07-18T22:05:49.846Z,98302.53
2023-07-18T22:08:16.375Z,98299.75
2023-07-18T22:10:42.973Z,98296.03
2023-07-18T22:13:09.442Z,98295.66
2023-07-18T22:15:35.876Z,98297.78
2023-07-18T22:18:15.894Z,98296.81
2023-07-18T22:20:47.121Z,98288.84
2023-07-18T22:23:13.626Z,98287.75
2023-07-18T22:25:40.163Z,98290.22
2023-07-18T22:28:06.563Z,98293.13
2023-07-18T22:30:32.993Z,98290.97
2023-07-18T22:32:59.572Z,98290.47
2023-07-18T22:35:26.019Z,98286.75
2023-07-18T22:37:52.511Z,98281.19
2023-07-18T22:40:18.963Z,98289.81
2023-07-18T22:42:46.497Z,98299.97
2023-07-18T22:45:13.038Z,98300.06
2023-07-18T22:47:39.594Z,98291.63
2023-07-18T22:50:06.684Z,98290.44
2023-07-18T22:52:33.090Z,98292.56
2023-07-18T22:54:59.508Z,98284.59
2023-07-18T22:57:25.984Z,98284.72
2023-07-18T22:59:53.736Z,98286.91
2023-07-18T23:02:20.537Z,98288.50
2023-07-18T23:04:47.317Z,98274.16
2023-07-18T23:07:14.899Z,98277.78
2023-07-18T23:09:41.431Z,98272.50
2023-07-18T23:12:09.089Z,98268.06
2023-07-18T23:14:35.538Z,98268.91
2023-07-18T23:17:02.024Z,98268.44
2023-07-18T23:19:28.554Z,98259.28
2023-07-18T23:21:55.058Z,98257.16
2023-07-18T23:24:21.539Z,98257.88
2023-07-18T23:26:47.984Z,98257.13
2023-07-18T23:29:14.539Z,98249.34
2023-07-18T23:31:41.013Z,98257.47
2023-07-18T23:34:07.484Z,98259.47
2023-07-18T23:36:34.077Z,98258.81
2023-07-18T23:39:15.423Z,98265.94
2023-07-18T23:41:42.347Z,98255.19
2023-07-18T23:44:08.765Z,98255.78
2023-07-18T23:46:35.233Z,98250.44
2023-07-18T23:49:01.658Z,98253.94
2023-07-18T23:51:28.071Z,98259.53
2023-07-18T23:53:54.693Z,98258.06
2023-07-18T23:56:21.173Z,98255.38
2023-07-18T23:58:47.622Z,98253.84
